Time;durP1;ratioP1;P1;durP2;ratioP2;P2;SDS_P1;SDS_P2;PMS_P1;PMS_P2;Temp;Humidity;BMP_temperature;BMP_pressure;BME280_temperature;BME280_humidity;BME280_pressure;Samples;Min_cycle;Max_cycle;Signal;HPM_P1;HPM_P2
2022/09/04 00:00:21;;;;;;;4.50;3.10;;;;;;;14.21;100.00;100031.31;4974200;28;20231;-63
2022/09/04 00:03:13;;;;;;;4.30;2.50;;;;;;;14.15;100.00;100031.75;5002183;28;20219;-61
2022/09/04 00:05:49;;;;;;;3.30;2.93;;;;;;;14.09;100.00;100032.19;4992280;28;20262;-61
2022/09/04 00:08:51;;;;;;;2.93;2.73;;;;;;;14.06;100.00;100029.84;4992562;28;20258;-61
2022/09/04 00:11:28;;;;;;;3.60;2.87;;;;;;;14.03;100.00;100039.44;5000643;28;20222;-62
2022/09/04 00:14:08;;;;;;;2.97;2.77;;;;;;;14.04;100.00;100045.44;4996517;28;20237;-62
2022/09/04 00:16:41;;;;;;;4.13;3.40;;;;;;;13.89;100.00;100047.31;4987930;28;20671;-62
2022/09/04 00:19:25;;;;;;;3.53;3.23;;;;;;;13.88;100.00;100053.47;4984342;28;20694;-62
2022/09/04 00:22:48;;;;;;;6.10;3.10;;;;;;;13.82;100.00;100057.28;4995957;28;20214;-62
2022/09/04 00:25:24;;;;;;;4.27;3.80;;;;;;;13.88;100.00;100054.28;4992244;28;20191;-62
2022/09/04 00:27:57;;;;;;;3.60;3.30;;;;;;;13.93;100.00;100055.69;4992322;28;20661;-61
2022/09/04 00:30:23;;;;;;;5.70;3.90;;;;;;;14.02;100.00;100058.47;5004624;28;20230;-62
2022/09/04 00:33:25;;;;;;;4.77;3.70;;;;;;;13.92;100.00;100061.81;5006475;28;20192;-62
2022/09/04 00:35:57;;;;;;;3.73;3.43;;;;;;;13.84;100.00;100065.78;4988281;28;20206;-62
2022/09/04 00:38:25;;;;;;;4.10;3.67;;;;;;;13.94;100.00;100070.28;4990671;28;20219;-62
2022/09/04 00:41:09;;;;;;;3.90;3.47;;;;;;;13.85;100.00;100067.44;4987882;28;20227;-62
2022/09/04 00:43:55;;;;;;;4.57;3.30;;;;;;;13.78;100.00;100073.94;4998875;28;20287;-61
2022/09/04 00:46:33;;;;;;;4.07;3.27;;;;;;;13.92;100.00;100075.56;4975039;28;20173;-62
2022/09/04 00:49:22;;;;;;;3.53;3.20;;;;;;;13.82;100.00;100082.31;4987696;28;20199;-62
2022/09/04 00:52:11;;;;;;;3.33;3.03;;;;;;;13.81;100.00;100078.88;5000213;28;20226;-62
2022/09/04 00:54:46;;;;;;;4.00;2.97;;;;;;;13.90;100.00;100081.78;5005799;28;20561;-62
2022/09/04 00:57:53;;;;;;;6.87;3.73;;;;;;;13.81;100.00;100084.06;4981326;28;20199;-62
2022/09/04 01:00:20;;;;;;;7.10;4.00;;;;;;;13.79;100.00;100083.34;4983956;28;20185;-62
2022/09/04 01:03:06;;;;;;;4.23;3.83;;;;;;;13.72;100.00;100087.28;5004562;28;20666;-62
2022/09/04 01:06:02;;;;;;;5.33;3.73;;;;;;;13.58;100.00;100087.38;4991395;28;20183;-62
2022/09/04 01:08:40;;;;;;;4.50;4.10;;;;;;;13.57;100.00;100094.31;4992022;28;20186;-62
2022/09/04 01:11:31;;;;;;;5.00;4.50;;;;;;;13.49;100.00;100097.41;4989891;28;20686;-62
2022/09/04 01:14:11;;;;;;;5.77;4.40;;;;;;;13.36;100.00;100099.94;4995505;28;20227;-65
2022/09/04 01:17:15;;;;;;;6.83;4.60;;;;;;;13.29;100.00;100103.06;5006666;28;20187;-61
2022/09/04 01:20:03;;;;;;;4.87;3.60;;;;;;;13.34;100.00;100100.97;4988796;28;20615;-62
2022/09/04 01:22:54;;;;;;;4.40;3.40;;;;;;;13.39;100.00;100098.94;4981035;28;20231;-62
2022/09/04 01:25:33;;;;;;;4.13;3.50;;;;;;;13.49;100.00;100105.16;4991345;28;20291;-61
2022/09/04 01:28:04;;;;;;;3.60;3.30;;;;;;;13.57;100.00;100109.84;5006584;28;20188;-62
2022/09/04 01:30:39;;;;;;;4.23;3.30;;;;;;;13.51;100.00;100111.06;4990929;28;20241;-63
2022/09/04 01:33:24;;;;;;;4.37;3.97;;;;;;;13.51;100.00;100107.66;4993073;28;20190;-62
2022/09/04 01:36:08;;;;;;;4.13;3.57;;;;;;;13.64;100.00;100110.22;4994814;28;20261;-62
2022/09/04 01:38:50;;;;;;;5.03;3.93;;;;;;;13.56;100.00;100114.16;4978580;28;20208;-61
2022/09/04 01:41:42;;;;;;;3.57;3.20;;;;;;;13.60;100.00;100107.03;4979293;28;20238;-61
2022/09/04 01:44:10;;;;;;;5.30;4.03;;;;;;;13.69;100.00;100109.00;4986412;28;20383;-61
2022/09/04 01:46:46;;;;;;;5.03;3.70;;;;;;;13.63;100.00;100103.41;4981599;28;20241;-61
2022/09/04 01:49:30;;;;;;;3.83;3.27;;;;;;;13.60;100.00;100107.03;4989802;28;20190;-61
2022/09/04 01:52:08;;;;;;;5.87;4.00;;;;;;;13.66;100.00;100098.03;4995711;28;20230;-64
2022/09/04 01:54:51;;;;;;;4.17;3.77;;;;;;;13.58;100.00;100105.47;4985819;28;20179;-61
2022/09/04 01:57:50;;;;;;;6.30;4.37;;;;;;;13.56;100.00;100101.22;4985256;28;20199;-61
2022/09/04 02:00:21;;;;;;;3.77;3.47;;;;;;;13.63;100.00;100111.16;4983225;28;20179;-61
2022/09/04 02:02:54;;;;;;;4.13;3.40;;;;;;;13.69;100.00;100110.75;5004020;28;20199;-61
2022/09/04 02:05:43;;;;;;;4.93;3.93;;;;;;;13.56;100.00;100110.75;4987747;28;20184;-62
2022/09/04 02:08:30;;;;;;;5.37;3.80;;;;;;;13.58;100.00;100118.41;4992310;28;20266;-61
2022/09/04 02:11:11;;;;;;;4.07;3.73;;;;;;;13.66;100.00;100116.94;4991719;28;20295;-62
2022/09/04 02:13:55;;;;;;;4.37;3.47;;;;;;;13.76;100.00;100119.75;4990130;28;20224;-62
2022/09/04 02:16:32;;;;;;;3.97;3.30;;;;;;;13.72;100.00;100118.31;4989400;28;20614;-62
2022/09/04 02:19:26;;;;;;;4.90;3.33;;;;;;;13.95;100.00;100123.66;5009969;28;20234;-61
2022/09/04 02:21:57;;;;;;;4.97;3.40;;;;;;;14.06;100.00;100125.53;4982889;28;20242;-62
2022/09/04 02:25:00;;;;;;;6.53;3.40;;;;;;;14.00;100.00;100126.75;4985709;28;20210;-62
2022/09/04 02:27:35;;;;;;;6.60;3.50;;;;;;;14.20;100.00;100122.78;4994412;28;20199;-62
2022/09/04 02:30:03;;;;;;;5.60;3.27;;;;;;;14.26;100.00;100129.31;4996007;28;20253;-62
2022/09/04 02:32:52;;;;;;;5.57;3.33;;;;;;;14.21;100.00;100124.44;4993790;28;20230;-62
2022/09/04 02:35:37;;;;;;;5.83;3.40;;;;;;;14.23;100.00;100127.78;4997515;28;20180;-62
2022/09/04 02:38:31;;;;;;;8.40;3.70;;;;;;;14.22;100.00;100120.13;4985104;28;20216;-62
2022/09/04 02:41:12;;;;;;;5.67;3.40;;;;;;;14.27;100.00;100124.03;4989103;28;20230;-62
2022/09/04 02:43:57;;;;;;;3.50;3.10;;;;;;;14.40;100.00;100134.38;5009446;28;20202;-66
2022/09/04 02:46:43;;;;;;;3.67;2.60;;;;;;;14.47;100.00;100129.56;4994317;28;20179;-62
2022/09/04 02:49:23;;;;;;;5.43;3.40;;;;;;;14.55;100.00;100123.84;4992137;28;20188;-61
2022/09/04 02:52:32;;;;;;;3.93;3.53;;;;;;;14.59;100.00;100122.72;4995159;28;20246;-62
2022/09/04 02:55:38;;;;;;;4.17;3.77;;;;;;;14.55;100.00;100122.09;4982566;28;20188;-61
2022/09/04 02:58:31;;;;;;;6.70;4.13;;;;;;;14.72;100.00;100117.50;4984945;28;20216;-62
2022/09/04 03:01:17;;;;;;;5.30;4.40;;;;;;;14.81;100.00;100128.03;4973663;28;20250;-62
2022/09/04 03:03:53;;;;;;;4.80;4.30;;;;;;;14.75;100.00;100130.22;4993161;28;20604;-62
2022/09/04 03:06:51;;;;;;;4.33;3.93;;;;;;;14.75;100.00;100123.28;4993286;28;20190;-61
2022/09/04 03:09:39;;;;;;;5.30;4.77;;;;;;;14.83;100.00;100131.34;4992571;28;20184;-62
2022/09/04 03:12:27;;;;;;;5.47;4.97;;;;;;;14.72;100.00;100126.09;4998633;28;20302;-61
2022/09/04 03:15:06;;;;;;;5.20;4.70;;;;;;;14.91;100.00;100133.38;4993124;28;20640;-61
2022/09/04 03:17:45;;;;;;;7.97;5.87;;;;;;;14.81;100.00;100140.13;4981841;28;20607;-62
2022/09/04 03:20:22;;;;;;;6.27;5.53;;;;;;;14.98;100.00;100144.94;4985982;28;20176;-61
2022/09/04 03:23:22;;;;;;;6.20;5.60;;;;;;;15.07;100.00;100145.19;5006098;28;20212;-62
2022/09/04 03:26:14;;;;;;;9.70;6.40;;;;;;;15.16;100.00;100137.59;4992414;28;20342;-62
2022/09/04 03:29:15;;;;;;;6.90;5.87;;;;;;;15.15;100.00;100141.13;4988948;28;20168;-61
2022/09/04 03:32:09;;;;;;;6.10;5.50;;;;;;;15.20;100.00;100145.16;4944998;28;20241;-61
2022/09/04 03:35:02;;;;;;;7.00;6.30;;;;;;;15.25;100.00;100146.44;4987307;28;20626;-61
2022/09/04 03:38:13;;;;;;;8.03;6.47;;;;;;;15.18;100.00;100140.06;4968120;28;20201;-62
2022/09/04 03:40:41;;;;;;;8.77;6.40;;;;;;;15.38;100.00;100137.78;4979339;28;20231;-62
2022/09/04 03:43:19;;;;;;;8.73;6.43;;;;;;;15.43;100.00;100133.06;4983814;28;20195;-63
2022/09/04 03:46:03;;;;;;;7.57;6.63;;;;;;;15.61;100.00;100134.28;4971977;28;20203;-62
2022/09/04 03:48:28;;;;;;;8.67;7.77;;;;;;;15.64;100.00;100134.06;4971364;28;20223;-62
2022/09/04 03:51:09;;;;;;;8.53;7.30;;;;;;;15.72;100.00;100135.25;4965331;28;20628;-62
2022/09/04 03:53:47;;;;;;;8.37;6.77;;;;;;;15.82;100.00;100133.63;4980443;28;20215;-61
2022/09/04 03:56:25;;;;;;;9.83;7.57;;;;;;;15.81;100.00;100135.38;4971640;28;20184;-62
2022/09/04 03:58:59;;;;;;;10.53;8.60;;;;;;;15.81;100.00;100145.75;4973675;28;20212;-61
2022/09/04 04:01:48;;;;;;;9.47;7.83;;;;;;;15.85;100.00;100151.56;4962187;28;20683;-62
2022/09/04 04:04:34;;;;;;;10.67;9.03;;;;;;;15.94;100.00;100160.44;4969615;28;20191;-63
2022/09/04 04:07:07;;;;;;;11.23;8.23;;;;;;;15.98;100.00;100157.47;4973262;28;20550;-61
2022/09/04 04:09:35;;;;;;;10.07;8.07;;;;;;;15.94;100.00;100155.25;4973495;28;20196;-62
2022/09/04 04:12:27;;;;;;;8.80;7.90;;;;;;;15.98;100.00;100164.44;4961920;28;20616;-62
2022/09/04 04:15:09;;;;;;;9.30;8.27;;;;;;;15.98;100.00;100169.63;4971337;28;20196;-61
2022/09/04 04:18:04;;;;;;;9.83;8.37;;;;;;;16.06;100.00;100167.28;4973332;28;20743;-61
2022/09/04 04:20:43;;;;;;;11.60;8.50;;;;;;;16.16;100.00;100169.97;4970470;28;20218;-61
2022/09/04 04:23:28;;;;;;;17.33;9.80;;;;;;;16.14;100.00;100169.28;4981410;28;20756;-62
2022/09/04 04:26:31;;;;;;;15.87;11.07;;;;;;;16.10;100.00;100176.47;4972823;28;20186;-61
2022/09/04 04:29:24;;;;;;;17.63;11.53;;;;;;;16.07;100.00;100174.09;4968486;28;20176;-61
2022/09/04 04:32:14;;;;;;;19.20;12.63;;;;;;;15.96;100.00;100176.69;5001059;28;20227;-62
2022/09/04 04:35:17;;;;;;;16.33;12.17;;;;;;;15.89;100.00;100188.44;4994553;28;20187;-61
2022/09/04 04:37:54;;;;;;;15.90;11.30;;;;;;;15.79;100.00;100180.53;4984280;28;20858;-62
2022/09/04 04:40:45;;;;;;;18.33;12.00;;;;;;;15.93;100.00;100189.91;4978489;28;20278;-65
2022/09/04 04:43:16;;;;;;;20.60;12.17;;;;;;;16.04;100.00;100189.91;5001976;28;20233;-61
2022/09/04 04:46:02;;;;;;;18.80;11.93;;;;;;;15.86;100.00;100196.47;4987875;28;20290;-61
2022/09/04 04:48:57;;;;;;;18.37;11.80;;;;;;;15.96;100.00;100198.28;4981110;28;20194;-61
2022/09/04 04:51:54;;;;;;;17.93;10.97;;;;;;;16.04;100.00;100205.47;4987513;28;20223;-61
2022/09/04 04:54:50;;;;;;;14.87;9.90;;;;;;;16.05;100.00;100204.53;4992363;28;20176;-62
2022/09/04 04:57:27;;;;;;;15.17;9.60;;;;;;;16.16;100.00;100215.84;4992317;28;20628;-62
2022/09/04 05:00:11;;;;;;;14.37;9.23;;;;;;;16.07;100.00;100225.16;4992000;28;20226;-61
2022/09/04 05:02:42;;;;;;;12.77;9.77;;;;;;;16.24;100.00;100221.28;4981044;28;20211;-61
2022/09/04 05:05:25;;;;;;;9.97;7.57;;;;;;;16.19;100.00;100228.63;4991208;28;20207;-62
2022/09/04 05:08:05;;;;;;;9.77;7.57;;;;;;;16.08;100.00;100230.22;4991961;28;20187;-62
2022/09/04 05:10:45;;;;;;;10.87;8.30;;;;;;;16.06;100.00;100226.09;4980335;28;20294;-62
2022/09/04 05:13:19;;;;;;;10.23;7.40;;;;;;;16.19;100.00;100229.44;5000099;28;20215;-62
2022/09/04 05:16:03;;;;;;;8.17;6.77;;;;;;;16.10;100.00;100238.72;4991533;28;20182;-62
2022/09/04 05:18:36;;;;;;;9.57;7.43;;;;;;;16.13;100.00;100245.47;4991885;28;20202;-61
2022/09/04 05:21:28;;;;;;;10.70;7.97;;;;;;;15.95;100.00;100251.09;4980470;28;20317;-61
2022/09/04 05:24:04;;;;;;;9.53;7.10;;;;;;;15.94;100.00;100251.22;4984659;28;20697;-62
2022/09/04 05:26:46;;;;;;;10.37;7.33;;;;;;;16.04;100.00;100257.38;5006832;28;20233;-62
2022/09/04 05:29:37;;;;;;;9.40;7.33;;;;;;;16.09;100.00;100254.44;4991769;28;20193;-62
2022/09/04 05:32:29;;;;;;;9.13;6.50;;;;;;;15.95;100.00;100266.66;5009186;28;20238;-61
2022/09/04 05:35:13;;;;;;;9.47;6.60;;;;;;;16.01;100.00;100269.72;4990221;28;20183;-62
2022/09/04 05:38:00;;;;;;;9.47;6.67;;;;;;;16.11;100.00;100271.53;5000632;28;20219;-62
2022/09/04 05:40:34;;;;;;;8.27;6.67;;;;;;;16.21;100.00;100269.06;4981065;28;20238;-62
2022/09/04 05:43:18;;;;;;;10.27;6.47;;;;;;;16.18;100.00;100279.66;5005898;28;20202;-63
2022/09/04 05:46:02;;;;;;;10.63;7.33;;;;;;;16.12;100.00;100280.97;4996856;28;20262;-61
2022/09/04 05:48:51;;;;;;;6.97;6.27;;;;;;;16.36;100.00;100281.81;5010503;28;20179;-62
2022/09/04 05:51:17;;;;;;;8.47;6.00;;;;;;;16.50;100.00;100284.19;4994941;28;20222;-62
2022/09/04 05:54:06;;;;;;;6.27;5.30;;;;;;;16.35;100.00;100293.13;4990426;28;20188;-62
2022/09/04 05:56:44;;;;;;;6.77;5.20;;;;;;;16.34;100.00;100291.50;4983250;28;20191;-62
2022/09/04 05:59:28;;;;;;;7.60;5.27;;;;;;;16.12;100.00;100291.34;4995023;28;20265;-62
2022/09/04 06:02:11;;;;;;;6.43;5.27;;;;;;;16.20;100.00;100290.78;4999531;28;20222;-62
2022/09/04 06:05:02;;;;;;;5.33;4.83;;;;;;;16.29;100.00;100287.47;5009770;28;20199;-62
2022/09/04 06:07:59;;;;;;;5.23;4.10;;;;;;;16.37;100.00;100294.69;5010040;28;20218;-62
2022/09/04 06:10:34;;;;;;;5.30;4.77;;;;;;;16.53;100.00;100296.94;4983428;28;20226;-62
2022/09/04 06:13:21;;;;;;;4.63;4.13;;;;;;;16.84;100.00;100304.13;5002920;28;20333;-62
2022/09/04 06:16:04;;;;;;;4.80;3.93;;;;;;;16.93;100.00;100308.63;4994497;28;20271;-63
2022/09/04 06:19:09;;;;;;;5.17;4.27;;;;;;;16.66;100.00;100311.56;4994869;28;20246;-62
2022/09/04 06:21:46;;;;;;;4.80;4.10;;;;;;;16.81;100.00;100314.75;5002674;28;20301;-63
2022/09/04 06:24:27;;;;;;;5.77;4.40;;;;;;;16.88;100.00;100315.94;5008778;28;20230;-62
2022/09/04 06:27:05;;;;;;;4.03;3.63;;;;;;;16.94;100.00;100318.09;4994552;28;20605;-61
2022/09/04 06:29:40;;;;;;;4.13;3.73;;;;;;;17.12;100.00;100318.44;4994781;28;20289;-62
2022/09/04 06:32:16;;;;;;;4.30;3.77;;;;;;;17.08;100.00;100319.63;4997807;28;20648;-62
2022/09/04 06:35:03;;;;;;;4.53;4.03;;;;;;;17.15;100.00;100330.34;4990906;28;20658;-62
2022/09/04 06:37:53;;;;;;;4.57;4.17;;;;;;;17.36;100.00;100327.81;4988613;28;20254;-62
2022/09/04 06:40:21;;;;;;;4.57;3.87;;;;;;;17.36;100.00;100336.44;4977908;28;20279;-61
2022/09/04 06:42:58;;;;;;;4.27;3.97;;;;;;;16.94;100.00;100334.50;5006213;28;20184;-61
2022/09/04 06:45:32;;;;;;;4.30;3.90;;;;;;;16.88;100.00;100337.56;4994104;28;20191;-61
2022/09/04 06:48:22;;;;;;;4.60;4.20;;;;;;;16.52;100.00;100343.78;4994184;28;20472;-62
2022/09/04 06:51:06;;;;;;;4.43;4.03;;;;;;;16.66;100.00;100337.53;5001900;28;20309;-61
2022/09/04 06:54:18;;;;;;;4.67;3.67;;;;;;;17.03;100.00;100338.16;5000662;28;20631;-62
2022/09/04 06:57:03;;;;;;;4.60;4.17;;;;;;;17.10;100.00;100338.50;4989690;28;20171;-62
2022/09/04 06:59:55;;;;;;;4.63;4.13;;;;;;;17.38;100.00;100341.53;4990540;28;20255;-62
2022/09/04 07:02:30;;;;;;;4.30;3.90;;;;;;;17.65;100.00;100345.47;4972765;28;20274;-63
2022/09/04 07:05:17;;;;;;;4.50;4.10;;;;;;;17.69;100.00;100344.28;4993819;28;20182;-62
2022/09/04 07:07:53;;;;;;;4.33;3.93;;;;;;;17.49;100.00;100349.31;5008781;28;20187;-62
2022/09/04 07:10:35;;;;;;;5.07;4.67;;;;;;;17.55;100.00;100355.78;4981126;28;20188;-62
2022/09/04 07:13:15;;;;;;;5.03;4.53;;;;;;;17.50;100.00;100355.31;5001441;28;20289;-63
2022/09/04 07:15:51;;;;;;;5.30;4.90;;;;;;;16.93;100.00;100351.06;4988080;28;20288;-62
2022/09/04 07:18:40;;;;;;;5.00;4.60;;;;;;;17.25;100.00;100368.50;5002036;28;20378;-62
2022/09/04 07:21:32;;;;;;;5.20;4.63;;;;;;;17.42;100.00;100361.16;4991513;28;20279;-62
2022/09/04 07:24:38;;;;;;;5.20;4.77;;;;;;;17.66;100.00;100362.72;4996665;28;20231;-65
2022/09/04 07:27:35;;;;;;;4.53;4.13;;;;;;;17.63;100.00;100369.00;4993839;28;20198;-63
2022/09/04 07:30:05;;;;;;;4.93;4.50;;;;;;;17.58;100.00;100371.16;4995098;28;20258;-63
2022/09/04 07:32:54;;;;;;;4.37;3.97;;;;;;;17.49;100.00;100371.88;4955835;28;20352;-62
2022/09/04 07:35:25;;;;;;;4.93;4.53;;;;;;;17.69;100.00;100380.72;4992403;28;20195;-62
2022/09/04 07:38:09;;;;;;;5.53;5.03;;;;;;;17.90;100.00;100378.16;4986014;28;20234;-63
2022/09/04 07:40:40;;;;;;;5.30;4.80;;;;;;;18.29;100.00;100375.84;4997315;28;20341;-62
2022/09/04 07:43:56;;;;;;;5.00;4.53;;;;;;;18.31;100.00;100376.56;4992456;28;20195;-62
2022/09/04 07:46:34;;;;;;;5.70;4.90;;;;;;;18.56;100.00;100374.50;4987105;28;20215;-63
2022/09/04 07:49:25;;;;;;;5.63;4.83;;;;;;;18.27;100.00;100382.97;4988900;28;20215;-62
2022/09/04 07:51:56;;;;;;;5.40;5.00;;;;;;;18.25;100.00;100384.88;4980661;28;20227;-62
2022/09/04 07:54:43;;;;;;;5.87;5.37;;;;;;;17.97;100.00;100391.50;4973584;28;20192;-62
2022/09/04 07:57:36;;;;;;;5.97;5.47;;;;;;;17.73;100.00;100388.13;4990640;28;20187;-62
2022/09/04 08:00:02;;;;;;;5.60;5.10;;;;;;;17.29;100.00;100395.09;4987871;28;20195;-63
2022/09/04 08:02:57;;;;;;;5.03;4.53;;;;;;;17.09;100.00;100407.03;4967916;28;20210;-63
2022/09/04 08:05:26;;;;;;;5.30;4.90;;;;;;;17.27;100.00;100410.78;4989995;28;20191;-63
2022/09/04 08:08:22;;;;;;;5.90;5.40;;;;;;;17.22;100.00;100417.31;4990163;28;20218;-63
2022/09/04 08:11:01;;;;;;;5.43;4.93;;;;;;;17.55;100.00;100415.59;4980142;28;20227;-63
2022/09/04 08:14:05;;;;;;;6.20;5.67;;;;;;;17.90;100.00;100417.19;4990141;28;20269;-63
2022/09/04 08:17:02;;;;;;;5.53;5.03;;;;;;;18.10;100.00;100414.75;4973822;28;20179;-62
2022/09/04 08:19:39;;;;;;;4.83;4.43;;;;;;;18.44;100.00;100422.41;4987988;28;20206;-62
2022/09/04 08:22:10;;;;;;;5.40;4.87;;;;;;;18.30;100.00;100415.75;4980291;28;20235;-62
2022/09/04 08:24:49;;;;;;;4.40;4.10;;;;;;;18.73;100.00;100411.34;4985184;28;20179;-62
2022/09/04 08:27:28;;;;;;;5.40;4.90;;;;;;;18.82;100.00;100418.41;5007213;28;20187;-63
2022/09/04 08:30:04;;;;;;;4.93;4.53;;;;;;;19.03;100.00;100426.19;4993223;28;20541;-61
2022/09/04 08:32:51;;;;;;;5.73;5.23;;;;;;;19.02;100.00;100427.16;4988037;28;20207;-63
2022/09/04 08:35:55;;;;;;;4.87;4.37;;;;;;;19.01;100.00;100434.16;4993887;28;20681;-63
2022/09/04 08:38:35;;;;;;;4.73;4.30;;;;;;;19.22;100.00;100435.06;4981066;28;20636;-62
2022/09/04 08:41:00;;;;;;;5.50;5.00;;;;;;;19.51;100.00;100433.38;5000244;28;20313;-62
2022/09/04 08:43:53;;;;;;;5.00;4.50;;;;;;;19.51;100.00;100440.34;5007304;28;20223;-62
2022/09/04 08:46:53;;;;;;;5.17;4.67;;;;;;;19.18;100.00;100445.75;4987527;28;20242;-63
2022/09/04 08:49:33;;;;;;;5.83;5.23;;;;;;;19.50;100.00;100444.75;4990251;28;20332;-62
2022/09/04 08:52:13;;;;;;;5.60;5.10;;;;;;;19.65;100.00;100453.03;4996646;28;20233;-63
2022/09/04 08:54:46;;;;;;;5.30;4.80;;;;;;;19.88;100.00;100452.81;4991606;28;20218;-62
2022/09/04 08:57:42;;;;;;;6.57;5.87;;;;;;;19.28;100.00;100453.59;4991631;28;20626;-61
2022/09/04 09:00:18;;;;;;;6.57;5.97;;;;;;;19.05;100.00;100452.94;4982730;28;20620;-63
2022/09/04 09:02:49;;;;;;;6.00;5.50;;;;;;;19.48;100.00;100456.28;5004789;28;20603;-62
2022/09/04 09:05:36;;;;;;;6.07;5.47;;;;;;;19.44;100.00;100454.91;4991381;28;20176;-61
2022/09/04 09:08:14;;;;;;;6.43;5.10;;;;;;;19.55;100.00;100454.78;4991805;28;20175;-61
2022/09/04 09:10:48;;;;;;;5.93;5.43;;;;;;;19.30;100.00;100461.28;4986572;28;20554;-61
2022/09/04 09:13:45;;;;;;;6.87;6.27;;;;;;;19.00;100.00;100455.13;5001038;28;20306;-62
2022/09/04 09:16:41;;;;;;;7.63;6.90;;;;;;;19.27;100.00;100456.34;4990763;28;20309;-62
2022/09/04 09:19:18;;;;;;;9.67;6.77;;;;;;;19.24;100.00;100465.25;4991628;28;20199;-61
2022/09/04 09:21:51;;;;;;;7.70;6.93;;;;;;;19.60;100.00;100459.63;4994677;28;20300;-63
2022/09/04 09:24:41;;;;;;;7.17;6.47;;;;;;;19.47;100.00;100455.47;4992276;28;20213;-62
2022/09/04 09:27:13;;;;;;;7.97;7.27;;;;;;;18.93;100.00;100461.81;4991738;28;20191;-62
2022/09/04 09:30:04;;;;;;;9.47;6.90;;;;;;;18.72;100.00;100457.44;5006557;28;20550;-62
2022/09/04 09:33:03;;;;;;;7.03;6.33;;;;;;;18.91;100.00;100456.72;4980637;28;20246;-62
2022/09/04 09:35:37;;;;;;;7.57;6.60;;;;;;;19.55;100.00;100446.13;5002216;28;20198;-62
2022/09/04 09:38:47;;;;;;;8.07;7.30;;;;;;;19.88;100.00;100449.38;4996568;28;20326;-63
2022/09/04 09:41:42;;;;;;;6.57;5.97;;;;;;;20.29;100.00;100453.53;4980011;28;20356;-63
2022/09/04 09:44:37;;;;;;;7.20;6.53;;;;;;;19.98;100.00;100453.66;4993473;28;20183;-62
2022/09/04 09:47:48;;;;;;;7.20;6.57;;;;;;;19.94;100.00;100459.28;4991753;28;20263;-62
2022/09/04 09:50:40;;;;;;;8.60;7.80;;;;;;;19.95;100.00;100453.09;4997850;28;20183;-62
2022/09/04 09:53:24;;;;;;;9.23;8.33;;;;;;;19.63;100.00;100454.94;5001783;28;20214;-62
2022/09/04 09:56:13;;;;;;;10.13;8.90;;;;;;;19.82;100.00;100450.72;5006005;28;20188;-62
2022/09/04 09:59:00;;;;;;;10.37;8.73;;;;;;;20.03;100.00;100453.22;4991350;28;20231;-62
2022/09/04 10:01:57;;;;;;;9.23;8.30;;;;;;;20.52;100.00;100463.69;4991624;28;20248;-62
2022/09/04 10:04:40;;;;;;;10.50;9.40;;;;;;;20.01;100.00;100455.16;4991623;28;20191;-63
2022/09/04 10:07:36;;;;;;;9.80;8.80;;;;;;;19.64;100.00;100463.59;4991210;28;20175;-62
2022/09/04 10:10:17;;;;;;;9.07;8.27;;;;;;;20.03;100.00;100461.06;4988430;28;20185;-63
2022/09/04 10:12:58;;;;;;;10.10;9.10;;;;;;;19.81;100.00;100464.75;5004392;28;20230;-62
2022/09/04 10:15:53;;;;;;;9.83;8.83;;;;;;;20.27;100.00;100460.66;4989594;28;20211;-63
2022/09/04 10:18:58;;;;;;;10.13;9.13;;;;;;;20.55;100.00;100467.78;4991127;28;20570;-62
2022/09/04 10:21:49;;;;;;;10.43;9.43;;;;;;;20.45;100.00;100465.19;4991529;28;20777;-62
2022/09/04 10:25:01;;;;;;;9.77;8.73;;;;;;;20.83;100.00;100465.31;4992101;28;20790;-62
2022/09/04 10:27:45;;;;;;;10.13;9.13;;;;;;;19.79;100.00;100451.00;4994285;28;20184;-62
2022/09/04 10:30:21;;;;;;;8.70;7.90;;;;;;;20.48;100.00;100460.50;4988131;28;20701;-62
2022/09/04 10:33:18;;;;;;;9.50;8.70;;;;;;;20.91;100.00;100455.78;5003454;28;20258;-62
2022/09/04 10:36:21;;;;;;;9.60;8.60;;;;;;;21.04;100.00;100465.09;5000007;28;20179;-62
2022/09/04 10:42:17;;;;;;;8.90;8.00;;;;;;;21.87;97.90;100459.06;4999240;28;20288;-63
2022/09/04 10:44:52;;;;;;;8.80;7.90;;;;;;;22.24;91.29;100447.59;5009011;28;20193;-61
2022/09/04 10:47:33;;;;;;;7.43;6.73;;;;;;;22.75;88.20;100450.44;4994578;28;20206;-62
2022/09/04 10:50:26;;;;;;;7.97;7.17;;;;;;;22.87;86.32;100446.56;5009191;28;20990;-62
2022/09/04 10:53:23;;;;;;;8.40;7.20;;;;;;;23.28;85.23;100438.09;4983263;28;20274;-62
2022/09/04 10:56:04;;;;;;;8.07;7.37;;;;;;;23.23;85.73;100439.53;4990690;28;20206;-61
2022/09/04 10:58:43;;;;;;;7.73;7.10;;;;;;;23.39;87.60;100436.16;4994182;28;20552;-62
2022/09/04 11:01:38;;;;;;;8.40;7.70;;;;;;;22.97;84.63;100443.00;4991954;28;20583;-62
2022/09/04 11:04:44;;;;;;;8.33;7.53;;;;;;;22.50;88.14;100439.78;4996653;28;20180;-62
2022/09/04 11:07:39;;;;;;;8.53;7.73;;;;;;;22.06;90.43;100437.13;4989558;28;20202;-62
2022/09/04 11:10:43;;;;;;;8.33;7.53;;;;;;;21.82;93.21;100435.94;4971662;28;20179;-63
2022/09/04 11:13:40;;;;;;;8.03;7.33;;;;;;;21.48;97.83;100430.47;5006246;28;20304;-62
2022/09/04 11:16:26;;;;;;;8.30;7.60;;;;;;;21.80;99.52;100429.19;4985799;28;20267;-62
2022/09/04 11:19:11;;;;;;;9.23;8.33;;;;;;;21.86;97.95;100429.41;4989616;28;20208;-61
2022/09/04 11:21:36;;;;;;;8.53;7.77;;;;;;;21.81;96.98;100434.28;4993391;28;20669;-62
2022/09/04 11:24:51;;;;;;;9.67;8.80;;;;;;;21.48;98.30;100430.47;4988428;28;20221;-61
2022/09/04 11:27:54;;;;;;;7.50;6.80;;;;;;;21.48;100.00;100422.63;4989706;28;20196;-62
2022/09/04 11:30:25;;;;;;;8.93;6.83;;;;;;;21.71;100.00;100425.69;4983245;28;20551;-62
2022/09/04 11:33:02;;;;;;;7.57;6.87;;;;;;;21.77;99.95;100427.72;5012066;28;20203;-61
2022/09/04 11:36:07;;;;;;;7.90;7.10;;;;;;;21.67;97.41;100419.06;5013531;28;20175;-61
2022/09/04 11:39:17;;;;;;;8.23;7.53;;;;;;;21.44;100.00;100424.72;5009748;28;20630;-62
2022/09/04 11:42:07;;;;;;;7.47;6.77;;;;;;;21.59;100.00;100419.81;5000398;28;20225;-61
2022/09/04 11:44:40;;;;;;;7.93;7.23;;;;;;;22.16;100.00;100421.31;5010098;28;20265;-62
2022/09/04 11:47:14;;;;;;;8.93;8.03;;;;;;;22.37;94.65;100419.22;5010181;28;20198;-62
2022/09/04 11:50:08;;;;;;;8.13;7.33;;;;;;;22.34;94.72;100422.13;5010450;28;20285;-62
2022/09/04 11:52:54;;;;;;;6.20;5.70;;;;;;;22.63;95.88;100421.03;5000803;28;20223;-62
2022/09/04 11:55:42;;;;;;;6.97;6.37;;;;;;;22.58;90.72;100418.03;5009736;28;20238;-62
2022/09/04 11:58:37;;;;;;;5.73;5.23;;;;;;;22.18;94.69;100417.56;5010045;28;20199;-61
2022/09/04 12:01:27;;;;;;;6.40;5.10;;;;;;;22.48;92.46;100415.53;5000102;28;20222;-62
2022/09/04 12:04:22;;;;;;;5.03;4.63;;;;;;;22.84;90.99;100409.34;5009985;28;20639;-62
2022/09/04 12:07:15;;;;;;;4.93;4.43;;;;;;;23.27;89.66;100404.13;4982313;28;20211;-62
2022/09/04 12:10:02;;;;;;;6.50;5.20;;;;;;;23.52;85.88;100405.03;5007844;28;20215;-62
2022/09/04 12:12:56;;;;;;;6.00;5.40;;;;;;;23.39;85.26;100400.22;4981698;28;20238;-61
2022/09/04 12:15:54;;;;;;;4.83;4.43;;;;;;;23.24;83.08;100397.41;4992124;28;20178;-62
2022/09/04 12:18:53;;;;;;;3.90;3.60;;;;;;;22.86;83.78;100404.75;4992207;28;20208;-61
2022/09/04 12:21:34;;;;;;;3.00;2.80;;;;;;;22.79;82.54;100409.81;5000734;28;20286;-62
2022/09/04 12:24:37;;;;;;;3.63;3.03;;;;;;;22.84;81.86;100394.41;4987321;28;20572;-61
2022/09/04 12:27:23;;;;;;;4.70;3.27;;;;;;;22.78;79.82;100396.84;4988433;28;20291;-61
2022/09/04 12:30:07;;;;;;;3.50;3.27;;;;;;;22.94;82.76;100403.97;4986711;28;20198;-65
2022/09/04 12:32:49;;;;;;;3.63;3.33;;;;;;;23.10;80.23;100400.59;4998036;28;20502;-61
2022/09/04 12:35:54;;;;;;;2.83;2.60;;;;;;;23.36;77.65;100397.94;4996477;28;20186;-60
2022/09/04 12:38:38;;;;;;;2.00;1.90;;;;;;;23.75;74.08;100394.69;4980769;28;20319;-61
2022/09/04 12:41:18;;;;;;;2.03;1.83;;;;;;;23.88;69.42;100393.41;4976793;28;20225;-61
2022/09/04 12:44:16;;;;;;;3.23;2.53;;;;;;;23.59;69.62;100395.53;4987491;28;20180;-62